createdAt,value
2019-05-05T00:01:59.719Z,62.05
2019-05-05T00:04:54.654Z,63.56
2019-05-05T00:07:30.633Z,63.44
2019-05-05T00:10:04.574Z,51.84
2019-05-05T00:13:08.290Z,49.20
2019-05-05T00:16:05.046Z,52.66
2019-05-05T00:18:37.926Z,56.06
2019-05-05T00:21:10.717Z,58.39
2019-05-05T00:23:45.131Z,59.59
2019-05-05T00:26:18.255Z,60.47
2019-05-05T00:28:51.104Z,62.02
2019-05-05T00:31:24.353Z,65.85
2019-05-05T00:33:57.191Z,58.23
2019-05-05T00:36:30.179Z,50.62
2019-05-05T00:39:04.326Z,52.73
2019-05-05T00:41:37.531Z,55.41
2019-05-05T00:44:10.415Z,57.77
2019-05-05T00:47:08.051Z,59.76
2019-05-05T00:49:46.312Z,60.99
2019-05-05T00:52:17.828Z,62.81
2019-05-05T00:54:50.611Z,63.49
2019-05-05T00:57:24.315Z,51.94
2019-05-05T00:59:57.156Z,48.54
2019-05-05T01:02:36.692Z,51.60
2019-05-05T01:05:26.098Z,54.50
2019-05-05T01:07:59.018Z,56.71
2019-05-05T01:10:32.785Z,58.74
2019-05-05T01:13:06.990Z,60.12
2019-05-05T01:15:40.166Z,61.33
2019-05-05T01:18:15.103Z,62.46
2019-05-05T01:20:49.079Z,65.14
2019-05-05T01:23:24.288Z,52.54
2019-05-05T01:25:56.868Z,50.37
2019-05-05T01:28:31.109Z,53.13
2019-05-05T01:31:07.244Z,55.47
2019-05-05T01:33:47.025Z,57.74
2019-05-05T01:36:19.801Z,59.81
2019-05-05T01:38:58.834Z,60.81
2019-05-05T01:41:38.395Z,62.50
2019-05-05T01:44:11.240Z,64.53
2019-05-05T01:46:44.553Z,52.97
2019-05-05T01:49:17.422Z,48.96
2019-05-05T01:51:50.216Z,51.44
2019-05-05T01:54:25.018Z,53.64
2019-05-05T01:56:58.410Z,56.02
2019-05-05T01:59:31.246Z,57.52
2019-05-05T02:02:04.404Z,58.96
2019-05-05T02:04:37.576Z,60.15
2019-05-05T02:07:10.463Z,61.28
2019-05-05T02:09:44.834Z,62.66
2019-05-05T02:12:17.839Z,65.11
2019-05-05T02:14:50.616Z,53.42
2019-05-05T02:17:24.694Z,48.69
2019-05-05T02:19:57.668Z,51.10
2019-05-05T02:22:30.470Z,53.58
2019-05-05T02:25:04.229Z,55.45
2019-05-05T02:27:37.306Z,57.07
2019-05-05T02:30:22.270Z,58.64
2019-05-05T02:33:02.110Z,59.96
2019-05-05T02:35:35.384Z,61.06
2019-05-05T02:38:08.285Z,62.43
2019-05-05T02:40:41.405Z,64.89
2019-05-05T02:43:15.261Z,55.13
2019-05-05T02:46:19.390Z,47.86
2019-05-05T02:48:55.321Z,50.75
2019-05-05T02:51:30.841Z,53.53
2019-05-05T02:54:05.153Z,55.56
2019-05-05T02:56:45.661Z,57.10
2019-05-05T02:59:30.632Z,58.69
2019-05-05T03:02:16.763Z,60.25
2019-05-05T03:04:49.620Z,61.35
2019-05-05T03:07:26.371Z,62.53
2019-05-05T03:10:03.590Z,65.11
2019-05-05T03:12:39.466Z,52.14
2019-05-05T03:15:22.136Z,48.72
2019-05-05T03:17:55.024Z,51.34
2019-05-05T03:20:27.892Z,53.73
2019-05-05T03:23:00.704Z,55.51
2019-05-05T03:25:33.795Z,57.27
2019-05-05T03:28:06.686Z,58.61
2019-05-05T03:30:39.566Z,59.81
2019-05-05T03:33:15.683Z,61.11
2019-05-05T03:35:47.745Z,62.30
2019-05-05T03:38:20.753Z,65.86
2019-05-05T03:40:55.483Z,52.36
2019-05-05T03:43:31.718Z,48.79
2019-05-05T03:46:07.071Z,51.56
2019-05-05T03:48:39.964Z,54.07
2019-05-05T03:51:18.775Z,56.02
2019-05-05T03:53:47.865Z,57.66
2019-05-05T03:56:20.757Z,59.15
2019-05-05T03:58:54.221Z,60.47
2019-05-05T04:01:44.011Z,61.79
2019-05-05T04:04:25.120Z,62.60
2019-05-05T04:06:58.134Z,65.86
2019-05-05T04:09:31.005Z,54.82
2019-05-05T04:12:04.453Z,47.77
2019-05-05T04:14:39.345Z,49.74
2019-05-05T04:17:39.356Z,52.38
2019-05-05T04:20:36.696Z,54.63
2019-05-05T04:23:09.430Z,56.30
2019-05-05T04:25:43.895Z,57.80
2019-05-05T04:28:16.868Z,59.10
2019-05-05T04:30:49.632Z,60.46
2019-05-05T04:33:23.642Z,61.85
2019-05-05T04:35:56.615Z,62.40
2019-05-05T04:38:29.471Z,65.33
2019-05-05T04:41:03.497Z,54.56
2019-05-05T04:43:36.543Z,48.49
2019-05-05T04:46:09.426Z,51.20
2019-05-05T04:48:56.893Z,54.52
2019-05-05T04:51:46.640Z,57.10
2019-05-05T04:54:24.601Z,58.86
2019-05-05T04:56:57.389Z,60.35
2019-05-05T04:59:30.235Z,62.18
2019-05-05T05:02:07.726Z,63.57
2019-05-05T05:04:48.800Z,51.13
2019-05-05T05:07:21.735Z,51.92
2019-05-05T05:09:54.556Z,54.51
2019-05-05T05:12:27.433Z,56.28
2019-05-05T05:15:00.192Z,58.54
2019-05-05T05:17:40.970Z,60.71
2019-05-05T05:20:14.414Z,62.03
2019-05-05T05:22:47.212Z,65.44
2019-05-05T05:25:19.978Z,57.68
2019-05-05T05:27:53.640Z,50.55
2019-05-05T05:30:26.521Z,53.10
2019-05-05T05:32:59.295Z,55.49
2019-05-05T05:35:33.582Z,58.16
2019-05-05T05:38:07.689Z,60.70
2019-05-05T05:40:48.921Z,61.64
2019-05-05T05:43:27.934Z,63.35
2019-05-05T05:46:08.052Z,63.05
2019-05-05T05:48:50.604Z,51.44
2019-05-05T05:51:23.889Z,53.00
2019-05-05T05:53:56.747Z,55.64
2019-05-05T05:56:29.538Z,57.75
2019-05-05T05:59:03.665Z,58.64
2019-05-05T06:01:36.664Z,59.84
2019-05-05T06:04:09.497Z,60.62
2019-05-05T06:06:43.884Z,61.77
2019-05-05T06:09:16.806Z,61.88
2019-05-05T06:11:49.587Z,64.59
2019-05-05T06:14:22.357Z,57.06
2019-05-05T06:16:55.128Z,49.10
2019-05-05T06:19:27.886Z,50.06
2019-05-05T06:22:00.654Z,52.18
2019-05-05T06:24:34.624Z,54.59
2019-05-05T06:27:07.817Z,55.58
2019-05-05T06:29:40.545Z,56.23
2019-05-05T06:32:14.654Z,57.47
2019-05-05T06:34:47.667Z,58.70
2019-05-05T06:37:20.461Z,58.92
2019-05-05T06:39:55.494Z,60.42
2019-05-05T06:42:37.718Z,60.80
2019-05-05T06:45:19.513Z,60.97
2019-05-05T06:47:53.750Z,60.74
2019-05-05T06:50:26.639Z,60.96
2019-05-05T06:52:59.398Z,61.11
2019-05-05T06:55:34.056Z,62.90
2019-05-05T06:58:07.319Z,58.82
2019-05-05T07:00:40.147Z,49.82
2019-05-05T07:03:13.942Z,51.42
2019-05-05T07:05:46.887Z,53.35
2019-05-05T07:08:19.729Z,54.03
2019-05-05T07:10:54.888Z,52.90
2019-05-05T07:13:27.754Z,54.26
2019-05-05T07:16:00.617Z,55.87
2019-05-05T07:18:34.239Z,56.00
2019-05-05T07:21:07.248Z,56.67
2019-05-05T07:23:40.162Z,56.29
2019-05-05T07:26:14.402Z,55.49
2019-05-05T07:28:47.535Z,54.33
2019-05-05T07:31:20.512Z,54.95
2019-05-05T07:33:54.417Z,55.57
2019-05-05T07:36:45.809Z,55.87
2019-05-05T07:39:18.724Z,56.78
2019-05-05T07:41:51.598Z,57.19
2019-05-05T07:44:29.431Z,58.08
2019-05-05T07:46:59.175Z,57.71
2019-05-05T07:49:33.612Z,57.91
2019-05-05T07:52:07.398Z,56.89
2019-05-05T07:54:40.543Z,55.24
2019-05-05T07:57:14.624Z,54.89
2019-05-05T07:59:47.616Z,53.65
2019-05-05T08:02:20.593Z,54.47
2019-05-05T08:04:54.602Z,52.57
2019-05-05T08:07:27.643Z,52.15
2019-05-05T08:10:00.500Z,52.48
2019-05-05T08:12:34.155Z,51.20
2019-05-05T08:15:08.718Z,51.88
2019-05-05T08:17:53.954Z,51.59
2019-05-05T08:20:33.914Z,51.66
2019-05-05T08:23:09.731Z,50.25
2019-05-05T08:26:14.522Z,50.76
2019-05-05T08:28:54.633Z,51.22
2019-05-05T08:32:01.578Z,46.88
2019-05-05T08:34:34.443Z,46.13
2019-05-05T08:37:07.324Z,45.56
2019-05-05T08:39:40.374Z,44.67
2019-05-05T08:42:14.479Z,43.77
2019-05-05T08:44:47.508Z,44.19
2019-05-05T08:47:20.313Z,44.64
2019-05-05T08:49:53.743Z,43.62
2019-05-05T08:52:26.807Z,44.53
2019-05-05T08:55:00.801Z,44.66
2019-05-05T08:57:34.147Z,45.78
2019-05-05T09:00:07.567Z,44.11
2019-05-05T09:02:40.494Z,44.57
2019-05-05T09:05:14.429Z,44.88
2019-05-05T09:07:47.581Z,45.55
2019-05-05T09:10:20.622Z,45.14
2019-05-05T09:12:54.659Z,43.74
2019-05-05T09:15:27.573Z,42.61
2019-05-05T09:18:00.461Z,43.02
2019-05-05T09:20:34.755Z,43.81
2019-05-05T09:23:08.295Z,43.30
2019-05-05T09:26:08.198Z,43.36
2019-05-05T09:28:48.698Z,43.71
2019-05-05T09:31:23.864Z,44.79
2019-05-05T09:33:56.098Z,43.20
2019-05-05T09:36:30.589Z,43.60
2019-05-05T09:39:04.392Z,44.18
2019-05-05T09:41:37.720Z,43.41
2019-05-05T09:44:10.888Z,42.30
2019-05-05T09:46:44.633Z,44.72
2019-05-05T09:49:17.641Z,43.98
2019-05-05T09:51:50.566Z,43.39
2019-05-05T09:54:24.265Z,42.32
2019-05-05T09:56:57.437Z,43.32
2019-05-05T09:59:30.471Z,43.55
2019-05-05T10:02:04.450Z,44.43
2019-05-05T10:04:38.625Z,45.36
2019-05-05T10:07:13.659Z,43.31
2019-05-05T10:09:46.408Z,43.68
2019-05-05T10:12:19.347Z,41.68
2019-05-05T10:14:54.201Z,42.57
2019-05-05T10:17:27.268Z,42.31
2019-05-05T10:20:00.153Z,44.28
2019-05-05T10:22:34.314Z,43.05
2019-05-05T10:25:25.479Z,43.30
2019-05-05T10:27:58.603Z,44.69
2019-05-05T10:30:31.566Z,45.62
2019-05-05T10:33:04.449Z,45.78
2019-05-05T10:35:37.404Z,44.27
2019-05-05T10:38:10.478Z,43.62
2019-05-05T10:40:44.692Z,43.38
2019-05-05T10:43:17.863Z,43.50
2019-05-05T10:45:50.855Z,44.00
2019-05-05T10:48:23.780Z,43.61
2019-05-05T10:50:56.713Z,42.88
2019-05-05T10:53:29.747Z,43.32
2019-05-05T10:56:04.407Z,44.22
2019-05-05T10:58:37.561Z,44.13
2019-05-05T11:01:10.579Z,41.17
2019-05-05T11:03:44.689Z,40.04
2019-05-05T11:06:18.087Z,41.16
2019-05-05T11:08:51.237Z,40.83
2019-05-05T11:11:24.032Z,42.15
2019-05-05T11:13:57.389Z,40.72
2019-05-05T11:16:30.264Z,39.99
2019-05-05T11:19:04.310Z,39.22
2019-05-05T11:21:37.512Z,39.59
2019-05-05T11:24:10.684Z,39.25
2019-05-05T11:26:44.596Z,39.96
2019-05-05T11:29:18.116Z,40.33
2019-05-05T11:31:51.044Z,39.85
2019-05-05T11:34:27.384Z,40.25
2019-05-05T11:37:08.703Z,40.70
2019-05-05T11:39:41.599Z,41.34
2019-05-05T11:42:14.733Z,40.71
2019-05-05T11:44:47.690Z,39.37
2019-05-05T11:47:20.573Z,38.48
2019-05-05T11:49:56.229Z,37.45
2019-05-05T11:52:28.102Z,37.56
2019-05-05T11:55:11.253Z,38.54
2019-05-05T11:57:35.535Z,38.36
2019-05-05T12:00:08.904Z,38.45
2019-05-05T12:02:43.854Z,39.01
2019-05-05T12:05:16.673Z,39.07
2019-05-05T12:07:49.557Z,39.11
2019-05-05T12:10:39.847Z,39.74
2019-05-05T12:13:16.085Z,38.08
2019-05-05T12:15:53.812Z,38.24
2019-05-05T12:18:34.253Z,36.71
2019-05-05T12:21:08.140Z,37.52
2019-05-05T12:23:41.181Z,36.42
2019-05-05T12:26:31.728Z,35.25
2019-05-05T12:29:10.341Z,34.42
2019-05-05T12:31:48.326Z,36.53
2019-05-05T12:34:21.230Z,37.41
2019-05-05T12:36:54.221Z,36.91
2019-05-05T12:39:27.227Z,35.57
2019-05-05T12:42:00.517Z,36.12
2019-05-05T12:44:41.698Z,35.51
2019-05-05T12:47:34.123Z,34.69
2019-05-05T12:50:06.865Z,35.42
2019-05-05T12:52:39.709Z,35.23
2019-05-05T12:55:14.295Z,34.97
2019-05-05T12:57:47.321Z,35.30
2019-05-05T13:00:21.706Z,34.74
2019-05-05T13:02:54.613Z,34.76
2019-05-05T13:05:27.612Z,36.00
2019-05-05T13:08:00.535Z,36.22
2019-05-05T13:10:33.741Z,35.39
2019-05-05T13:13:06.759Z,36.12
2019-05-05T13:15:40.077Z,38.26
2019-05-05T13:18:14.012Z,38.46
2019-05-05T13:21:04.253Z,37.67
2019-05-05T13:24:01.808Z,37.46
2019-05-05T13:26:45.309Z,37.29
2019-05-05T13:29:18.206Z,37.25
2019-05-05T13:31:51.207Z,37.12
2019-05-05T13:34:24.464Z,37.54
2019-05-05T13:36:57.794Z,36.75
2019-05-05T13:39:30.742Z,37.35
2019-05-05T13:42:04.543Z,38.20
2019-05-05T13:44:58.362Z,37.77
2019-05-05T13:47:31.369Z,37.21
2019-05-05T13:50:19.519Z,37.47
2019-05-05T13:52:52.773Z,37.89
2019-05-05T13:55:25.735Z,38.44
2019-05-05T13:57:58.748Z,37.35
2019-05-05T14:00:33.703Z,38.35
2019-05-05T14:03:06.681Z,37.99
2019-05-05T14:05:39.570Z,38.17
2019-05-05T14:08:14.742Z,38.30
2019-05-05T14:10:47.784Z,37.99
2019-05-05T14:13:20.641Z,39.29
2019-05-05T14:15:54.473Z,39.51
2019-05-05T14:18:27.463Z,40.33
2019-05-05T14:21:00.412Z,37.39
2019-05-05T14:23:35.599Z,36.93
2019-05-05T14:26:08.494Z,36.65
2019-05-05T14:28:41.482Z,36.24
2019-05-05T14:31:16.406Z,34.73
2019-05-05T14:33:57.365Z,36.88
2019-05-05T14:36:37.430Z,34.99
2019-05-05T14:39:11.977Z,35.19
2019-05-05T14:41:45.146Z,34.27
2019-05-05T14:44:17.985Z,34.00
2019-05-05T14:46:50.843Z,34.80
2019-05-05T14:49:24.619Z,34.91
2019-05-05T14:51:57.605Z,35.58
2019-05-05T14:54:30.521Z,36.03
2019-05-05T14:57:04.539Z,35.16
2019-05-05T14:59:37.498Z,34.90
2019-05-05T15:02:11.580Z,34.41
2019-05-05T15:04:44.615Z,34.14
2019-05-05T15:07:34.498Z,33.53
2019-05-05T15:10:29.448Z,34.13
2019-05-05T15:13:05.764Z,34.19
2019-05-05T15:15:39.867Z,34.77
2019-05-05T15:18:14.598Z,34.60
2019-05-05T15:20:47.643Z,34.80
2019-05-05T15:23:20.523Z,35.61
2019-05-05T15:25:54.015Z,35.13
2019-05-05T15:28:27.129Z,35.06
2019-05-05T15:31:00.046Z,34.96
2019-05-05T15:33:33.690Z,35.83
2019-05-05T15:36:06.530Z,36.00
2019-05-05T15:38:39.572Z,36.10
2019-05-05T15:41:14.380Z,36.24
2019-05-05T15:43:47.195Z,35.80
2019-05-05T15:46:19.995Z,36.39
2019-05-05T15:48:54.566Z,36.33
2019-05-05T15:51:28.435Z,34.66
2019-05-05T15:54:01.236Z,34.94
2019-05-05T15:56:34.255Z,34.20
2019-05-05T15:59:07.329Z,34.97
2019-05-05T16:01:40.574Z,34.04
2019-05-05T16:04:14.116Z,34.32
2019-05-05T16:06:50.513Z,35.24
2019-05-05T16:09:23.388Z,34.27
2019-05-05T16:11:56.206Z,35.11
2019-05-05T16:14:29.288Z,35.55
2019-05-05T16:17:30.039Z,35.40
2019-05-05T16:20:10.026Z,34.55
2019-05-05T16:23:14.355Z,35.79
2019-05-05T16:25:47.337Z,35.57
2019-05-05T16:28:21.223Z,34.31
2019-05-05T16:30:56.120Z,35.29
2019-05-05T16:33:28.715Z,35.07
2019-05-05T16:36:01.556Z,34.89
2019-05-05T16:38:34.512Z,35.08
2019-05-05T16:41:07.490Z,35.74
2019-05-05T16:43:40.345Z,35.93
2019-05-05T16:46:16.992Z,36.10
2019-05-05T16:48:48.993Z,35.87
2019-05-05T16:51:25.802Z,35.26
2019-05-05T16:54:00.452Z,35.39
2019-05-05T16:56:33.640Z,35.26
2019-05-05T16:59:06.572Z,34.90
2019-05-05T17:01:39.555Z,33.75
2019-05-05T17:04:14.293Z,34.25
2019-05-05T17:06:47.166Z,33.26
2019-05-05T17:09:20.034Z,33.54
2019-05-05T17:12:11.151Z,33.32
2019-05-05T17:15:17.855Z,34.17
2019-05-05T17:17:57.068Z,34.05
2019-05-05T17:20:33.755Z,33.75
2019-05-05T17:23:08.858Z,33.91
2019-05-05T17:25:43.814Z,33.01
2019-05-05T17:28:17.131Z,33.46
2019-05-05T17:30:50.011Z,34.06
2019-05-05T17:33:24.168Z,34.15
2019-05-05T17:35:57.158Z,34.47
2019-05-05T17:38:30.119Z,34.84
2019-05-05T17:41:14.192Z,34.96
2019-05-05T17:44:09.418Z,34.89
2019-05-05T17:46:55.944Z,35.06
2019-05-05T17:49:45.774Z,35.33
2019-05-05T17:52:36.182Z,35.96
2019-05-05T17:55:33.860Z,36.01
2019-05-05T17:58:06.957Z,35.95
2019-05-05T18:00:54.351Z,36.55
2019-05-05T18:03:27.534Z,36.24
2019-05-05T18:06:18.254Z,36.67
2019-05-05T18:08:55.735Z,36.37
2019-05-05T18:11:38.244Z,36.81
2019-05-05T18:14:16.504Z,36.91
2019-05-05T18:16:49.383Z,37.20
2019-05-05T18:19:24.777Z,37.16
2019-05-05T18:21:57.784Z,37.21
2019-05-05T18:24:30.762Z,37.36
2019-05-05T18:27:04.572Z,37.57
2019-05-05T18:29:37.682Z,37.68
2019-05-05T18:32:10.560Z,38.09
2019-05-05T18:34:43.409Z,38.13
2019-05-05T18:37:16.282Z,38.38
2019-05-05T18:39:49.343Z,38.40
2019-05-05T18:42:24.674Z,38.65
2019-05-05T18:45:03.592Z,38.94
2019-05-05T18:47:37.516Z,39.30
2019-05-05T18:50:10.841Z,39.62
2019-05-05T18:52:47.054Z,39.77
2019-05-05T18:55:18.759Z,40.28
2019-05-05T18:57:51.850Z,40.27
2019-05-05T19:00:45.192Z,40.28
2019-05-05T19:03:24.524Z,40.55
2019-05-05T19:06:16.628Z,41.01
2019-05-05T19:08:54.409Z,41.12
2019-05-05T19:11:26.339Z,41.26
2019-05-05T19:13:59.668Z,42.10
2019-05-05T19:16:34.561Z,42.08
2019-05-05T19:19:07.495Z,42.18
2019-05-05T19:21:43.827Z,42.52
2019-05-05T19:24:17.069Z,42.45
2019-05-05T19:26:50.360Z,43.08
2019-05-05T19:29:25.335Z,42.76
2019-05-05T19:31:58.688Z,43.17
2019-05-05T19:34:35.119Z,43.10
2019-05-05T19:37:06.881Z,43.58
2019-05-05T19:39:39.950Z,43.47
2019-05-05T19:42:14.416Z,43.76
2019-05-05T19:44:47.714Z,44.06
2019-05-05T19:47:22.078Z,44.12
2019-05-05T19:50:03.590Z,44.62
2019-05-05T19:52:36.983Z,44.82
2019-05-05T19:55:13.720Z,44.59
2019-05-05T19:57:46.515Z,45.98
2019-05-05T20:00:20.246Z,45.32
2019-05-05T20:03:04.238Z,45.84
2019-05-05T20:05:29.222Z,45.45
2019-05-05T20:08:03.930Z,45.83
2019-05-05T20:10:37.189Z,45.89
2019-05-05T20:13:13.824Z,45.79
2019-05-05T20:16:18.092Z,46.54
2019-05-05T20:18:51.297Z,47.13
2019-05-05T20:21:24.367Z,46.87
2019-05-05T20:23:57.397Z,47.24
2019-05-05T20:26:30.646Z,47.26
2019-05-05T20:29:11.545Z,47.36
2019-05-05T20:31:38.502Z,47.15
2019-05-05T20:34:24.428Z,47.34
2019-05-05T20:37:11.031Z,47.93
2019-05-05T20:39:44.258Z,47.97
2019-05-05T20:42:17.140Z,47.83
2019-05-05T20:44:50.192Z,48.19
2019-05-05T20:47:23.726Z,48.46
2019-05-05T20:49:57.034Z,48.43
2019-05-05T20:52:30.173Z,48.37
2019-05-05T20:55:04.780Z,48.29
2019-05-05T20:57:38.145Z,48.95
2019-05-05T21:00:14.544Z,49.60
2019-05-05T21:02:49.046Z,49.97
2019-05-05T21:05:24.021Z,50.06
2019-05-05T21:07:56.613Z,49.80
2019-05-05T21:10:29.483Z,50.11
2019-05-05T21:13:03.727Z,50.95
2019-05-05T21:15:36.911Z,52.05
2019-05-05T21:18:09.797Z,53.08
2019-05-05T21:20:44.036Z,53.50
2019-05-05T21:23:21.403Z,54.40
2019-05-05T21:25:58.116Z,55.21
2019-05-05T21:28:30.975Z,56.05
2019-05-05T21:31:04.824Z,56.50
2019-05-05T21:33:37.870Z,56.46
2019-05-05T21:36:11.155Z,56.65
2019-05-05T21:38:44.102Z,57.51
2019-05-05T21:41:19.279Z,57.58
2019-05-05T21:43:51.549Z,57.51
2019-05-05T21:46:24.545Z,57.83
2019-05-05T21:48:57.460Z,58.16
2019-05-05T21:51:45.979Z,57.97
2019-05-05T21:54:44.046Z,58.38
2019-05-05T21:57:38.552Z,58.61
2019-05-05T22:00:39.559Z,59.25
2019-05-05T22:03:17.195Z,59.27
2019-05-05T22:05:50.167Z,59.43
2019-05-05T22:08:23.940Z,59.58
2019-05-05T22:10:56.966Z,59.26
2019-05-05T22:13:29.790Z,59.37
2019-05-05T22:16:04.088Z,60.04
2019-05-05T22:18:37.045Z,61.24
2019-05-05T22:21:19.146Z,61.10
2019-05-05T22:24:12.852Z,61.49
2019-05-05T22:26:44.760Z,61.76
2019-05-05T22:29:18.059Z,61.74
2019-05-05T22:31:50.932Z,61.99
2019-05-05T22:34:24.173Z,62.19
2019-05-05T22:36:57.225Z,62.61
2019-05-05T22:39:33.662Z,66.86
2019-05-05T22:42:06.104Z,55.25
2019-05-05T22:44:38.999Z,46.50
2019-05-05T22:47:13.889Z,46.94
2019-05-05T22:49:46.877Z,48.99
2019-05-05T22:52:19.668Z,49.78
2019-05-05T22:54:52.527Z,51.41
2019-05-05T22:57:25.532Z,52.45
2019-05-05T22:59:58.295Z,52.70
2019-05-05T23:02:34.175Z,53.72
2019-05-05T23:05:24.429Z,54.24
2019-05-05T23:07:58.395Z,54.72
2019-05-05T23:10:31.451Z,55.19
2019-05-05T23:13:04.430Z,55.45
2019-05-05T23:15:39.384Z,56.21
2019-05-05T23:18:20.712Z,56.74
2019-05-05T23:21:15.563Z,57.40
2019-05-05T23:24:09.468Z,57.85
2019-05-05T23:26:43.834Z,58.33
2019-05-05T23:29:17.763Z,58.79
2019-05-05T23:31:50.643Z,59.32
2019-05-05T23:34:24.282Z,59.68
2019-05-05T23:36:57.325Z,60.00
2019-05-05T23:39:30.172Z,60.61
2019-05-05T23:42:04.072Z,61.01
2019-05-05T23:44:36.928Z,61.77
2019-05-05T23:47:09.731Z,62.46
2019-05-05T23:49:44.024Z,61.77
2019-05-05T23:52:17.020Z,62.18
2019-05-05T23:54:49.908Z,62.06
2019-05-05T23:57:24.553Z,65.81
2019-05-05T23:59:57.182Z,61.66
